Time;durP1;ratioP1;P1;durP2;ratioP2;P2;SDS_P1;SDS_P2;PMS_P1;PMS_P2;Temp;Humidity;BMP_temperature;BMP_pressure;BME280_temperature;BME280_humidity;BME280_pressure;Samples;Min_cycle;Max_cycle;Signal;HPM_P1;HPM_P2
2022/09/07 00:01:44;;;;;;;7.70;3.20;;;;;;;;;;5094868;28;20583;-76
2022/09/07 00:04:10;;;;;;;4.33;3.13;;;;;;;;;;5089237;28;20219;-77
2022/09/07 00:06:37;;;;;;;4.00;2.80;;;;;;;;;;5081847;28;20189;-76
2022/09/07 00:09:03;;;;;;;3.83;2.97;;;;;;;;;;5090311;28;20227;-76
2022/09/07 00:11:29;;;;;;;4.03;3.27;;;;;;;;;;5063294;28;20196;-76
2022/09/07 00:13:56;;;;;;;5.03;3.20;;;;;;;;;;5073916;28;20165;-76
2022/09/07 00:16:26;;;;;;;4.57;3.03;;;;;;;;;;5092741;28;20177;-76
2022/09/07 00:18:54;;;;;;;5.13;3.40;;;;;;;;;;5101400;28;20226;-76
2022/09/07 00:21:21;;;;;;;5.70;3.13;;;;;;;;;;5079421;28;20303;-76
2022/09/07 00:23:47;;;;;;;4.40;2.80;;;;;;;;;;5102300;28;20170;-76
2022/09/07 00:26:16;;;;;;;4.63;3.00;;;;;;;;;;5068455;28;20199;-76
2022/09/07 00:28:42;;;;;;;5.13;3.13;;;;;;;;;;5069272;28;20261;-76
2022/09/07 00:31:09;;;;;;;4.93;3.00;;;;;;;;;;5081890;28;20210;-76
2022/09/07 00:33:36;;;;;;;5.17;2.90;;;;;;;;;;5089328;28;20169;-77
2022/09/07 00:36:02;;;;;;;4.17;3.00;;;;;;;;;;5088509;28;20188;-75
2022/09/07 00:38:29;;;;;;;4.57;3.60;;;;;;;;;;5095589;28;20199;-77
2022/09/07 00:40:55;;;;;;;3.90;2.87;;;;;;;;;;5070007;28;20527;-76
2022/09/07 00:43:37;;;;;;;5.53;3.20;;;;;;;;;;5072760;28;20200;-76
2022/09/07 00:46:04;;;;;;;3.73;3.00;;;;;;;;;;5073718;28;20233;-76
2022/09/07 00:48:34;;;;;;;4.43;3.13;;;;;;;;;;5066997;28;20200;-76
2022/09/07 00:51:02;;;;;;;4.77;2.90;;;;;;;;;;5090470;28;20180;-76
2022/09/07 00:53:31;;;;;;;4.70;2.80;;;;;;;;;;5058647;28;20241;-77
2022/09/07 00:55:58;;;;;;;3.57;2.80;;;;;;;;;;5091472;28;20525;-76
2022/09/07 00:58:25;;;;;;;6.03;2.90;;;;;;;;;;5088536;28;20200;-77
2022/09/07 01:00:51;;;;;;;5.50;2.70;;;;;;;;;;5084933;28;20176;-76
2022/09/07 01:03:19;;;;;;;3.53;2.77;;;;;;;;;;5072888;28;20209;-76
2022/09/07 01:05:56;;;;;;;2.87;2.53;;;;;;;;;;5087170;28;20650;-76
2022/09/07 01:08:23;;;;;;;3.80;2.73;;;;;;;;;;5071490;28;20204;-76
2022/09/07 01:10:49;;;;;;;3.23;2.70;;;;;;;;;;5053826;28;20208;-76
2022/09/07 01:13:16;;;;;;;3.20;2.50;;;;;;;;;;5082661;28;20186;-76
2022/09/07 01:15:50;;;;;;;4.27;2.77;;;;;;;;;;5094333;28;20204;-75
2022/09/07 01:18:25;;;;;;;3.63;2.60;;;;;;;;;;5085075;28;20200;-76
2022/09/07 01:21:05;;;;;;;3.20;2.90;;;;;;;;;;5073434;28;20211;-76
2022/09/07 01:23:37;;;;;;;4.43;2.80;;;;;;;;;;5084242;28;20804;-76
2022/09/07 01:26:21;;;;;;;3.50;2.70;;;;;;;;;;5100081;28;20634;-76
2022/09/07 01:28:51;;;;;;;3.50;2.60;;;;;;;;;;5100958;28;20275;-78
2022/09/07 01:31:41;;;;;;;3.50;2.60;;;;;;;;;;5084694;28;20200;-78
2022/09/07 01:34:20;;;;;;;3.00;2.70;;;;;;;;;;5078959;28;20348;-77
2022/09/07 01:36:49;;;;;;;3.40;3.03;;;;;;;;;;5080014;28;20183;-77
2022/09/07 01:39:17;;;;;;;3.37;2.70;;;;;;;;;;5095103;28;20303;-78
2022/09/07 01:41:51;;;;;;;3.53;2.43;;;;;;;;;;5087266;28;20328;-78
2022/09/07 01:44:21;;;;;;;4.13;2.33;;;;;;;;;;5093828;28;20219;-77
2022/09/07 01:46:58;;;;;;;4.20;2.80;;;;;;;;;;5090868;28;20249;-77
2022/09/07 01:49:27;;;;;;;2.90;2.60;;;;;;;;;;5060671;28;20229;-77
2022/09/07 01:51:57;;;;;;;3.77;2.97;;;;;;;;;;5085219;28;20221;-77
2022/09/07 01:54:31;;;;;;;4.20;3.23;;;;;;;;;;5089168;28;22039;-76
2022/09/07 01:57:01;;;;;;;5.47;3.40;;;;;;;;;;5078335;28;20635;-76
2022/09/07 01:59:36;;;;;;;4.80;3.93;;;;;;;;;;5054407;28;20176;-77
2022/09/07 02:02:08;;;;;;;5.57;4.03;;;;;;;;;;5085802;28;20196;-77
2022/09/07 02:04:37;;;;;;;4.80;3.60;;;;;;;;;;5088159;28;20187;-77
2022/09/07 02:07:14;;;;;;;6.23;3.70;;;;;;;;;;5086180;28;20188;-77
2022/09/07 02:09:52;;;;;;;5.00;3.63;;;;;;;;;;5079834;28;20267;-77
2022/09/07 02:12:26;;;;;;;4.53;3.17;;;;;;;;;;5084405;28;20701;-76
2022/09/07 02:14:55;;;;;;;5.73;3.87;;;;;;;;;;5082665;28;20202;-77
2022/09/07 02:17:24;;;;;;;6.53;4.50;;;;;;;;;;5095992;28;20193;-77
2022/09/07 02:19:58;;;;;;;5.47;3.97;;;;;;;;;;5086944;28;20593;-78
2022/09/07 02:22:27;;;;;;;4.53;4.00;;;;;;;;;;5069761;28;20191;-76
2022/09/07 02:24:55;;;;;;;6.10;4.50;;;;;;;;;;5083140;28;20835;-76
2022/09/07 02:27:24;;;;;;;8.60;5.17;;;;;;;;;;5088891;28;20204;-77
2022/09/07 02:29:51;;;;;;;8.37;5.37;;;;;;;;;;5083557;28;20183;-79
2022/09/07 02:32:17;;;;;;;6.23;5.20;;;;;;;;;;5081253;28;20204;-77
2022/09/07 02:34:45;;;;;;;8.87;6.20;;;;;;;;;;5094468;28;20266;-77
2022/09/07 02:37:11;;;;;;;9.50;5.57;;;;;;;;;;5076627;28;20193;-77
2022/09/07 02:39:38;;;;;;;6.50;5.30;;;;;;;;;;5084608;28;20660;-77
2022/09/07 02:42:04;;;;;;;6.17;5.30;;;;;;;;;;5087995;28;20213;-77
2022/09/07 02:44:33;;;;;;;9.17;5.30;;;;;;;;;;5097766;28;20183;-77
2022/09/07 02:47:05;;;;;;;9.83;5.57;;;;;;;;;;5075928;28;20674;-76
2022/09/07 02:49:45;;;;;;;8.27;5.43;;;;;;;;;;5072089;28;20191;-76
2022/09/07 02:52:34;;;;;;;7.27;5.87;;;;;;;;;;5082170;28;20192;-76
2022/09/07 02:55:09;;;;;;;8.40;5.00;;;;;;;;;;5088719;28;20583;-77
2022/09/07 02:57:49;;;;;;;5.17;3.90;;;;;;;;;;5070645;28;20206;-76
2022/09/07 03:00:17;;;;;;;5.00;4.17;;;;;;;;;;5092309;28;20259;-76
2022/09/07 03:02:51;;;;;;;5.57;3.30;;;;;;;;;;5081892;28;20225;-76
2022/09/07 03:05:24;;;;;;;4.53;3.80;;;;;;;;;;5090467;28;20193;-77
2022/09/07 03:08:03;;;;;;;5.30;4.10;;;;;;;;;;5089649;28;20207;-76
2022/09/07 03:10:29;;;;;;;6.20;4.47;;;;;;;;;;5083289;28;20248;-78
2022/09/07 03:12:56;;;;;;;7.67;4.23;;;;;;;;;;5072673;28;20200;-76
2022/09/07 03:15:24;;;;;;;4.93;4.00;;;;;;;;;;5086573;28;20260;-76
2022/09/07 03:17:50;;;;;;;6.43;4.27;;;;;;;;;;5089197;28;20295;-76
2022/09/07 03:20:17;;;;;;;6.10;4.50;;;;;;;;;;5090418;28;20234;-76
2022/09/07 03:22:44;;;;;;;6.40;4.63;;;;;;;;;;5093393;28;20193;-76
2022/09/07 03:25:10;;;;;;;6.50;4.20;;;;;;;;;;5072007;28;20668;-77
2022/09/07 03:27:36;;;;;;;7.53;4.33;;;;;;;;;;5093995;28;20952;-76
2022/09/07 03:30:04;;;;;;;4.60;3.73;;;;;;;;;;5094151;28;20686;-76
2022/09/07 03:32:31;;;;;;;5.83;3.90;;;;;;;;;;5083930;28;20254;-77
2022/09/07 03:34:57;;;;;;;4.53;3.73;;;;;;;;;;5089266;28;20180;-76
2022/09/07 03:37:24;;;;;;;5.57;3.70;;;;;;;;;;5073010;28;20209;-77
2022/09/07 03:39:50;;;;;;;5.50;3.87;;;;;;;;;;5093198;28;20185;-77
2022/09/07 03:42:16;;;;;;;5.50;4.40;;;;;;;;;;5102201;28;20646;-77
2022/09/07 03:44:42;;;;;;;5.93;4.63;;;;;;;;;;5081855;28;20176;-77
2022/09/07 03:47:08;;;;;;;6.17;4.47;;;;;;;;;;5082538;28;20230;-77
2022/09/07 03:49:35;;;;;;;4.40;4.00;;;;;;;;;;5101396;28;20156;-77
2022/09/07 03:52:01;;;;;;;4.40;4.00;;;;;;;;;;5093536;28;20208;-76
2022/09/07 03:54:27;;;;;;;5.97;4.17;;;;;;;;;;5097881;28;20187;-77
2022/09/07 03:56:53;;;;;;;7.03;4.40;;;;;;;;;;5076190;28;20541;-76
2022/09/07 03:59:20;;;;;;;6.37;4.40;;;;;;;;;;5097597;28;20746;-76
2022/09/07 04:01:46;;;;;;;5.80;4.80;;;;;;;;;;5099078;28;20226;-77
2022/09/07 04:04:12;;;;;;;4.87;4.40;;;;;;;;;;5100928;28;20185;-76
2022/09/07 04:06:38;;;;;;;4.73;4.33;;;;;;;;;;5062260;28;20295;-76
2022/09/07 04:09:06;;;;;;;6.78;5.35;;;;;;;;;;5077883;28;20441;-76
2022/09/07 04:11:32;;;;;;;6.57;5.17;;;;;;;;;;5088686;28;20197;-77
2022/09/07 04:13:59;;;;;;;6.03;4.70;;;;;;;;;;5086758;28;20175;-77
2022/09/07 04:16:25;;;;;;;6.65;5.47;;;;;;;;;;5085241;28;20935;-76
2022/09/07 04:18:57;;;;;;;6.00;5.00;;;;;;;;;;5079288;28;20192;-77
2022/09/07 04:21:24;;;;;;;6.97;5.73;;;;;;;;;;5052639;28;20884;-76
2022/09/07 04:23:50;;;;;;;6.67;5.40;;;;;;;;;;5059980;28;20204;-76
2022/09/07 04:26:18;;;;;;;8.17;5.43;;;;;;;;;;5074516;28;20184;-77
2022/09/07 04:28:45;;;;;;;8.00;5.23;;;;;;;;;;5096660;28;20196;-76
2022/09/07 04:31:11;;;;;;;6.37;4.93;;;;;;;;;;5089844;28;20193;-76
2022/09/07 04:33:37;;;;;;;6.43;4.73;;;;;;;;;;5094850;28;20245;-77
2022/09/07 04:36:04;;;;;;;7.27;4.47;;;;;;;;;;5091138;28;20850;-77
2022/09/07 04:38:30;;;;;;;5.50;4.70;;;;;;;;;;5093922;28;20272;-77
2022/09/07 04:41:08;;;;;;;6.97;4.70;;;;;;;;;;5087376;28;20172;-76
2022/09/07 04:43:35;;;;;;;6.77;4.63;;;;;;;;;;5064900;28;20220;-76
2022/09/07 04:46:05;;;;;;;5.43;4.50;;;;;;;;;;5090448;28;20687;-76
2022/09/07 04:48:31;;;;;;;4.77;4.27;;;;;;;;;;5086429;28;20207;-77
2022/09/07 04:51:04;;;;;;;5.60;4.50;;;;;;;;;;5081317;28;20183;-76
2022/09/07 04:53:31;;;;;;;5.37;4.30;;;;;;;;;;5076762;28;20263;-77
2022/09/07 04:55:58;;;;;;;5.50;4.40;;;;;;;;;;5081295;28;20197;-77
2022/09/07 04:58:24;;;;;;;6.00;4.57;;;;;;;;;;5095926;28;20200;-78
2022/09/07 05:00:50;;;;;;;7.13;4.13;;;;;;;;;;5083422;28;20263;-77
2022/09/07 05:03:16;;;;;;;5.30;3.77;;;;;;;;;;5103827;28;20585;-77
2022/09/07 05:05:43;;;;;;;6.23;3.90;;;;;;;;;;5097842;28;20218;-76
2022/09/07 05:08:10;;;;;;;6.83;4.07;;;;;;;;;;5095939;28;20200;-76
2022/09/07 05:10:36;;;;;;;5.57;4.00;;;;;;;;;;5064208;28;20220;-76
2022/09/07 05:13:02;;;;;;;4.20;3.70;;;;;;;;;;5099898;28;20271;-76
2022/09/07 05:15:29;;;;;;;5.83;3.93;;;;;;;;;;5077052;28;20207;-76
2022/09/07 05:17:56;;;;;;;5.87;4.00;;;;;;;;;;5100449;28;20203;-76
2022/09/07 05:20:22;;;;;;;4.73;4.00;;;;;;;;;;5061412;28;20181;-76
2022/09/07 05:22:52;;;;;;;3.63;3.30;;;;;;;;;;5102935;28;20173;-76
2022/09/07 05:25:18;;;;;;;4.00;3.60;;;;;;;;;;5097605;28;20204;-76
2022/09/07 05:27:45;;;;;;;4.87;3.77;;;;;;;;;;5069578;28;20206;-76
2022/09/07 05:30:12;;;;;;;5.00;3.53;;;;;;;;;;5071774;28;20252;-75
2022/09/07 05:32:38;;;;;;;6.07;3.90;;;;;;;;;;5055641;28;20265;-79
2022/09/07 05:35:04;;;;;;;6.20;3.80;;;;;;;;;;5069586;28;20654;-77
2022/09/07 05:37:31;;;;;;;6.20;4.40;;;;;;;;;;5087796;28;20236;-77
2022/09/07 05:39:57;;;;;;;5.70;3.90;;;;;;;;;;5091466;28;20176;-77
2022/09/07 05:42:23;;;;;;;5.93;4.13;;;;;;;;;;5077241;28;20212;-77
2022/09/07 05:44:49;;;;;;;4.77;3.90;;;;;;;;;;5086055;28;20183;-78
2022/09/07 05:47:15;;;;;;;6.33;4.00;;;;;;;;;;5097403;28;20213;-78
2022/09/07 05:49:42;;;;;;;6.37;4.00;;;;;;;;;;5090920;28;20185;-78
2022/09/07 05:52:08;;;;;;;5.33;4.10;;;;;;;;;;5087663;28;20200;-77
2022/09/07 05:54:34;;;;;;;4.27;3.63;;;;;;;;;;5100788;28;20226;-79
2022/09/07 05:57:02;;;;;;;5.10;4.40;;;;;;;;;;5069007;28;20262;-77
2022/09/07 05:59:28;;;;;;;5.43;4.17;;;;;;;;;;5080948;28;20179;-77
2022/09/07 06:01:54;;;;;;;5.63;4.60;;;;;;;;;;5059262;28;20238;-77
2022/09/07 06:04:20;;;;;;;6.43;4.30;;;;;;;;;;5082350;28;20188;-77
2022/09/07 06:06:47;;;;;;;4.40;3.47;;;;;;;;;;5088902;28;20196;-78
2022/09/07 06:09:13;;;;;;;8.00;3.97;;;;;;;;;;5088608;28;20287;-77
2022/09/07 06:11:39;;;;;;;5.77;4.10;;;;;;;;;;5071343;28;20348;-76
2022/09/07 06:14:05;;;;;;;7.17;3.97;;;;;;;;;;5085748;28;20241;-76
2022/09/07 06:16:34;;;;;;;4.90;3.80;;;;;;;;;;5084184;28;20530;-77
2022/09/07 06:19:04;;;;;;;6.40;3.67;;;;;;;;;;5090438;28;20954;-77
2022/09/07 06:21:33;;;;;;;4.83;3.70;;;;;;;;;;5087653;28;20263;-77
2022/09/07 06:24:00;;;;;;;4.03;3.60;;;;;;;;;;5084734;28;20288;-77
2022/09/07 06:26:26;;;;;;;4.63;3.60;;;;;;;;;;5095512;28;20180;-77
2022/09/07 06:28:53;;;;;;;6.10;3.70;;;;;;;;;;5085907;28;20209;-76
2022/09/07 06:31:20;;;;;;;4.83;3.70;;;;;;;;;;5090890;28;20210;-77
2022/09/07 06:33:46;;;;;;;4.17;3.63;;;;;;;;;;5100849;28;20180;-78
2022/09/07 06:36:14;;;;;;;6.33;3.60;;;;;;;;;;5088454;28;20286;-77
2022/09/07 06:38:41;;;;;;;5.20;3.47;;;;;;;;;;5079731;28;20220;-77
2022/09/07 06:41:08;;;;;;;7.10;3.70;;;;;;;;;;5084408;28;20191;-76
2022/09/07 06:43:35;;;;;;;4.53;3.53;;;;;;;;;;5065226;28;20171;-76
2022/09/07 06:46:01;;;;;;;7.77;3.60;;;;;;;;;;5061934;28;20176;-76
2022/09/07 06:48:27;;;;;;;5.20;3.27;;;;;;;;;;5067762;28;20767;-77
2022/09/07 06:51:01;;;;;;;5.40;3.40;;;;;;;;;;5091549;28;20263;-76
2022/09/07 06:53:29;;;;;;;5.30;3.07;;;;;;;;;;5085776;28;20323;-77
2022/09/07 06:55:56;;;;;;;4.13;3.13;;;;;;;;;;5091700;28;20168;-77
2022/09/07 06:58:25;;;;;;;6.13;3.70;;;;;;;;;;5055075;28;20188;-77
2022/09/07 07:00:52;;;;;;;7.43;3.50;;;;;;;;;;5087175;28;20740;-77
2022/09/07 07:03:19;;;;;;;6.40;3.40;;;;;;;;;;5097294;28;20226;-77
2022/09/07 07:05:52;;;;;;;6.13;3.50;;;;;;;;;;5096999;28;20639;-78
2022/09/07 07:08:19;;;;;;;5.37;3.70;;;;;;;;;;5067678;28;20309;-77
2022/09/07 07:10:45;;;;;;;5.53;3.50;;;;;;;;;;5087137;28;20203;-77
2022/09/07 07:13:11;;;;;;;6.47;3.40;;;;;;;;;;5062157;28;20196;-78
2022/09/07 07:15:37;;;;;;;6.27;3.10;;;;;;;;;;5066300;28;20176;-77
2022/09/07 07:18:04;;;;;;;5.43;3.33;;;;;;;;;;5064999;28;20261;-77
2022/09/07 07:20:30;;;;;;;5.53;3.33;;;;;;;;;;5047335;28;20180;-77
2022/09/07 07:22:56;;;;;;;7.13;3.80;;;;;;;;;;5063323;28;20176;-77
2022/09/07 07:25:24;;;;;;;5.10;3.27;;;;;;;;;;5069160;28;20243;-77
2022/09/07 07:27:50;;;;;;;6.83;2.70;;;;;;;;;;5086867;28;20196;-77
2022/09/07 07:30:17;;;;;;;6.67;3.03;;;;;;;;;;5083076;28;20245;-77
2022/09/07 07:32:43;;;;;;;5.23;2.90;;;;;;;;;;5071870;28;20208;-78
2022/09/07 07:35:10;;;;;;;4.73;2.90;;;;;;;;;;5083047;28;20200;-78
2022/09/07 07:37:36;;;;;;;4.73;2.60;;;;;;;;;;5057169;28;20205;-78
2022/09/07 07:40:07;;;;;;;4.57;2.60;;;;;;;;;;5084080;28;20268;-78
2022/09/07 07:42:34;;;;;;;7.17;2.87;;;;;;;;;;5073790;28;20181;-77
2022/09/07 07:45:01;;;;;;;5.90;3.30;;;;;;;;;;5067938;28;20181;-78
2022/09/07 07:47:27;;;;;;;5.53;3.30;;;;;;;;;;5071896;28;20287;-78
2022/09/07 07:49:54;;;;;;;6.00;3.10;;;;;;;;;;5096352;28;20181;-78
2022/09/07 07:52:20;;;;;;;4.77;3.20;;;;;;;;;;5085614;28;20286;-79
2022/09/07 07:54:47;;;;;;;4.90;3.30;;;;;;;;;;5090539;28;20656;-78
2022/09/07 07:57:15;;;;;;;4.23;3.10;;;;;;;;;;5093291;28;20180;-77
2022/09/07 07:59:41;;;;;;;7.70;3.47;;;;;;;;;;5089076;28;20264;-78
2022/09/07 08:02:13;;;;;;;6.40;3.20;;;;;;;;;;5097635;28;20176;-78
2022/09/07 08:04:39;;;;;;;6.70;3.57;;;;;;;;;;5092553;28;20185;-77
2022/09/07 08:07:06;;;;;;;7.30;3.30;;;;;;;;;;5083935;28;20267;-78
2022/09/07 08:09:32;;;;;;;5.83;3.30;;;;;;;;;;5070196;28;20191;-78
2022/09/07 08:11:58;;;;;;;4.53;2.73;;;;;;;;;;5060505;28;20555;-77
2022/09/07 08:14:25;;;;;;;5.47;3.20;;;;;;;;;;5086637;28;20364;-78
2022/09/07 08:16:51;;;;;;;5.03;3.27;;;;;;;;;;5084582;28;20187;-78
2022/09/07 08:19:17;;;;;;;5.13;3.10;;;;;;;;;;5085896;28;20200;-78
2022/09/07 08:21:43;;;;;;;6.43;3.20;;;;;;;;;;5086513;28;20203;-78
2022/09/07 08:24:10;;;;;;;5.17;3.10;;;;;;;;;;5094812;28;20181;-78
2022/09/07 08:26:36;;;;;;;6.50;3.47;;;;;;;;;;5091361;28;20183;-78
2022/09/07 08:29:02;;;;;;;5.30;3.23;;;;;;;;;;5087265;28;20279;-78
2022/09/07 08:31:29;;;;;;;5.20;3.20;;;;;;;;;;5088792;28;20290;-78
2022/09/07 08:33:55;;;;;;;7.23;3.43;;;;;;;;;;5091816;28;20173;-78
2022/09/07 08:36:21;;;;;;;5.77;3.33;;;;;;;;;;5067182;28;20196;-78
2022/09/07 08:38:47;;;;;;;8.13;3.87;;;;;;;;;;5085261;28;20239;-78
2022/09/07 08:41:26;;;;;;;6.53;3.13;;;;;;;;;;5070768;28;20185;-78
2022/09/07 08:43:54;;;;;;;7.47;3.53;;;;;;;;;;5082267;28;20582;-78
2022/09/07 08:46:23;;;;;;;4.97;3.27;;;;;;;;;;5092595;28;20280;-78
2022/09/07 08:48:49;;;;;;;4.30;3.10;;;;;;;;;;5092808;28;20311;-78
2022/09/07 08:51:21;;;;;;;7.50;3.43;;;;;;;;;;5077428;28;20548;-77
2022/09/07 08:53:48;;;;;;;7.20;3.30;;;;;;;;;;5087475;28;20284;-77
2022/09/07 08:56:27;;;;;;;10.10;3.37;;;;;;;;;;5085760;28;20191;-77
2022/09/07 08:58:53;;;;;;;4.47;3.57;;;;;;;;;;5094174;28;20203;-78
2022/09/07 09:01:28;;;;;;;6.83;3.50;;;;;;;;;;5097946;28;20589;-78
2022/09/07 09:03:54;;;;;;;7.37;3.37;;;;;;;;;;5072978;28;20195;-78
2022/09/07 09:06:27;;;;;;;6.80;3.33;;;;;;;;;;5067879;28;20671;-78
2022/09/07 09:08:59;;;;;;;5.53;3.50;;;;;;;;;;5092965;28;20213;-78
2022/09/07 09:11:30;;;;;;;6.70;3.03;;;;;;;;;;5058642;28;20204;-78
2022/09/07 09:14:14;;;;;;;5.43;3.20;;;;;;;;;;5085672;28;20177;-77
2022/09/07 09:16:40;;;;;;;7.03;3.17;;;;;;;;;;5084716;28;20174;-78
2022/09/07 09:19:18;;;;;;;6.30;2.83;;;;;;;;;;5080391;28;20548;-78
2022/09/07 09:21:45;;;;;;;5.67;2.70;;;;;;;;;;5085631;28;20188;-78
2022/09/07 09:24:14;;;;;;;5.57;2.60;;;;;;;;;;5093434;28;20184;-79
2022/09/07 09:26:42;;;;;;;4.50;2.57;;;;;;;;;;5069094;28;20185;-80
2022/09/07 09:29:11;;;;;;;3.73;2.47;;;;;;;;;;5066536;28;20647;-80
2022/09/07 09:31:38;;;;;;;5.03;2.50;;;;;;;;;;5074520;28;20748;-80
2022/09/07 09:34:14;;;;;;;4.87;2.80;;;;;;;;;;5053045;28;20193;-80
2022/09/07 09:36:43;;;;;;;5.00;2.70;;;;;;;;;;5055227;28;20187;-80
2022/09/07 09:39:28;;;;;;;9.00;2.50;;;;;;;;;;5066341;28;20212;-80
2022/09/07 09:41:56;;;;;;;5.17;2.70;;;;;;;;;;5085242;28;20690;-80
2022/09/07 09:44:22;;;;;;;4.90;2.50;;;;;;;;;;5073279;28;20642;-81
2022/09/07 09:46:51;;;;;;;4.87;2.67;;;;;;;;;;5091763;28;20198;-81
2022/09/07 09:49:25;;;;;;;4.40;2.40;;;;;;;;;;5066050;28;20204;-80
2022/09/07 09:51:55;;;;;;;5.53;2.70;;;;;;;;;;5083105;28;20200;-80
2022/09/07 09:54:35;;;;;;;6.37;2.60;;;;;;;;;;5069672;28;20276;-80
2022/09/07 09:57:02;;;;;;;4.57;2.47;;;;;;;;;;5052461;28;20252;-79
2022/09/07 09:59:30;;;;;;;3.73;2.33;;;;;;;;;;5070220;28;20177;-81
2022/09/07 10:01:57;;;;;;;4.77;2.50;;;;;;;;;;5087815;28;20184;-79
2022/09/07 10:04:26;;;;;;;3.73;2.50;;;;;;;;;;5078577;28;20177;-79
2022/09/07 10:07:05;;;;;;;3.77;2.50;;;;;;;;;;5054251;28;20221;-78
2022/09/07 10:09:36;;;;;;;5.90;2.40;;;;;;;;;;5064668;28;20188;-78
2022/09/07 10:12:04;;;;;;;7.50;2.43;;;;;;;;;;5033344;28;20215;-79
2022/09/07 10:14:36;;;;;;;4.83;2.37;;;;;;;;;;5058949;28;20190;-82
2022/09/07 10:17:13;;;;;;;3.77;2.40;;;;;;;;;;5070764;28;20182;-83
2022/09/07 10:19:41;;;;;;;3.07;2.20;;;;;;;;;;5058380;28;20229;-84
2022/09/07 10:22:27;;;;;;;3.53;2.30;;;;;;;;;;5076657;28;20217;-83
2022/09/07 10:24:53;;;;;;;3.13;2.30;;;;;;;;;;5094134;28;20247;-79
2022/09/07 10:27:28;;;;;;;5.83;2.20;;;;;;;;;;5085240;28;20185;-79
2022/09/07 10:29:54;;;;;;;4.23;2.30;;;;;;;;;;5060315;28;20179;-77
2022/09/07 10:32:40;;;;;;;6.47;2.47;;;;;;;;;;5051195;28;20223;-74
2022/09/07 10:35:19;;;;;;;4.10;2.00;;;;;;;;;;5079826;28;20185;-74
2022/09/07 10:37:51;;;;;;;5.07;2.20;;;;;;;;;;5083581;28;20220;-75
2022/09/07 10:40:39;;;;;;;3.20;2.00;;;26.10;41.00;;;;;;5056752;28;20196;-79
2022/09/07 10:43:30;;;;;;;3.33;2.30;;;26.60;72.80;;;;;;5088487;28;20237;-80
2022/09/07 10:46:33;;;;;;;4.93;2.03;;;26.30;69.60;;;;;;5071485;28;20704;-78
2022/09/07 10:49:09;;;;;;;3.00;2.20;;;26.30;70.10;;;;;;5063616;28;20220;-78
2022/09/07 10:51:55;;;;;;;3.73;2.50;;;26.40;71.20;;;;;;5090754;28;20231;-77
2022/09/07 10:54:39;;;;;;;3.13;2.10;;;26.40;70.10;;;;;;5057522;28;20181;-76
2022/09/07 10:57:12;;;;;;;4.77;2.40;;;26.50;69.50;;;;;;5087150;28;20552;-78
2022/09/07 10:59:56;;;;;;;7.93;2.50;;;26.50;69.40;;;;;;5069244;28;20176;-77
2022/09/07 11:02:39;;;;;;;3.70;2.20;;;26.50;69.30;;;;;;5086779;28;20173;-77
2022/09/07 11:05:33;;;;;;;4.53;2.33;;;26.50;69.20;;;;;;5074826;28;20658;-77
2022/09/07 11:08:26;;;;;;;4.90;2.17;;;26.60;67.70;;;;;;5081399;28;20205;-78
2022/09/07 11:11:16;;;;;;;2.97;2.40;;;26.70;67.20;;;;;;5066218;28;20299;-78
2022/09/07 11:13:45;;;;;;;3.57;2.30;;;26.90;66.50;;;;;;5052838;28;20248;-78
2022/09/07 11:16:17;;;;;;;4.20;2.10;;;27.00;65.70;;;;;;5094010;28;20188;-78
2022/09/07 11:18:57;;;;;;;3.33;2.20;;;27.10;64.60;;;;;;5096933;28;20192;-80
2022/09/07 11:21:28;;;;;;;5.20;2.30;;;27.40;64.20;;;;;;5084720;28;20186;-79
2022/09/07 11:23:59;;;;;;;4.63;2.10;;;27.70;62.10;;;;;;5085822;28;20182;-81
2022/09/07 11:26:31;;;;;;;4.07;2.00;;;28.10;61.50;;;;;;5091206;28;20269;-80
2022/09/07 11:29:28;;;;;;;2.23;1.90;;;28.50;59.40;;;;;;5089963;28;20229;-80
2022/09/07 11:32:03;;;;;;;4.70;2.10;;;28.70;58.20;;;;;;5090760;28;20276;-80
2022/09/07 11:34:33;;;;;;;3.20;2.03;;;29.00;57.80;;;;;;5087000;28;20191;-80
2022/09/07 11:37:17;;;;;;;4.57;2.27;;;29.20;57.00;;;;;;5093075;28;20184;-80
2022/09/07 11:39:52;;;;;;;4.37;2.00;;;29.20;56.90;;;;;;5073072;28;20216;-81
2022/09/07 11:42:30;;;;;;;3.77;1.90;;;29.30;56.50;;;;;;5077916;28;20273;-80
2022/09/07 11:45:05;;;;;;;4.13;2.03;;;29.40;56.80;;;;;;5089009;28;20224;-80
2022/09/07 11:47:58;;;;;;;5.90;2.10;;;29.80;55.90;;;;;;5088253;28;20196;-80
2022/09/07 11:50:27;;;;;;;4.47;1.73;;;29.90;54.70;;;;;;5089437;28;20198;-80
2022/09/07 11:53:14;;;;;;;3.23;1.80;;;29.90;54.60;;;;;;5098271;28;20195;-80
2022/09/07 11:55:45;;;;;;;6.00;2.17;;;30.60;54.10;;;;;;5069826;28;21217;-80
2022/09/07 11:58:47;;;;;;;5.83;1.90;;;31.20;53.10;;;;;;5093272;28;20208;-80
2022/09/07 12:01:41;;;;;;;3.47;1.90;;;31.80;51.30;;;;;;5069805;28;20233;-82
2022/09/07 12:04:28;;;;;;;4.77;1.80;;;32.50;49.70;;;;;;5067319;28;20228;-78
2022/09/07 12:07:08;;;;;;;5.23;1.97;;;32.90;49.70;;;;;;5076363;28;20170;-78
2022/09/07 12:10:16;;;;;;;3.13;2.00;;;33.50;47.80;;;;;;5080674;28;20541;-78
2022/09/07 12:13:19;;;;;;;3.93;1.90;;;33.00;46.70;;;;;;5058942;28;20261;-81
2022/09/07 12:15:57;;;;;;;3.20;1.70;;;32.60;47.70;;;;;;5084154;28;20186;-81
2022/09/07 12:19:05;;;;;;;2.90;1.70;;;32.20;47.30;;;;;;5067335;28;20276;-80
2022/09/07 12:21:34;;;;;;;2.83;1.50;;;31.40;47.30;;;;;;5022910;28;20201;-80
2022/09/07 12:24:00;;;;;;;2.77;1.60;;;30.70;48.70;;;;;;5080670;28;20185;-80
2022/09/07 12:26:33;;;;;;;2.70;1.50;;;30.40;48.60;;;;;;5075007;28;20188;-81
2022/09/07 12:28:58;;;;;;;5.67;1.70;;;30.30;48.40;;;;;;5048418;28;20804;-81
2022/09/07 12:31:42;;;;;;;3.80;1.70;;;30.10;48.70;;;;;;5082364;28;20192;-80
2022/09/07 12:34:30;;;;;;;4.17;1.80;;;29.70;49.60;;;;;;5065837;28;20275;-81
2022/09/07 12:37:00;;;;;;;3.97;1.60;;;29.10;50.80;;;;;;5080748;28;20184;-79
2022/09/07 12:39:36;;;;;;;2.07;1.50;;;28.80;51.70;;;;;;5050470;28;20243;-81
2022/09/07 12:42:04;;;;;;;2.37;1.70;;;28.50;52.10;;;;;;5076959;28;20286;-77
2022/09/07 12:44:35;;;;;;;2.27;1.60;;;28.50;52.90;;;;;;5064237;28;20185;-77
2022/09/07 12:47:27;;;;;;;2.73;1.70;;;28.50;52.90;;;;;;5083193;28;20185;-77
2022/09/07 12:50:10;;;;;;;2.30;1.70;;;28.50;51.90;;;;;;5055515;28;20192;-80
2022/09/07 12:52:44;;;;;;;2.93;1.50;;;28.50;51.80;;;;;;5084488;28;20208;-81
2022/09/07 12:55:54;;;;;;;2.43;1.60;;;28.80;51.10;;;;;;5039641;28;20295;-78
2022/09/07 12:58:33;;;;;;;2.70;1.53;;;29.40;50.50;;;;;;5009397;28;20213;-80
2022/09/07 13:01:22;;;;;;;2.33;1.50;;;29.60;50.50;;;;;;4991811;28;20187;-80
2022/09/07 13:04:19;;;;;;;4.00;1.70;;;30.40;50.20;;;;;;5067036;28;20186;-80
2022/09/07 13:07:03;;;;;;;3.83;1.77;;;30.60;49.60;;;;;;5089168;28;20201;-76
2022/09/07 13:09:38;;;;;;;2.87;1.70;;;30.40;50.20;;;;;;5091953;28;20758;-76
2022/09/07 13:12:25;;;;;;;2.73;1.70;;;30.50;50.70;;;;;;5085562;28;20554;-76
2022/09/07 13:14:56;;;;;;;2.57;1.60;;;30.50;49.40;;;;;;5079157;28;20186;-76
2022/09/07 13:17:40;;;;;;;3.93;1.70;;;30.40;50.00;;;;;;5067509;28;20188;-77
2022/09/07 13:20:09;;;;;;;2.97;1.80;;;30.40;49.80;;;;;;5084123;28;20182;-76
2022/09/07 13:22:35;;;;;;;2.87;1.70;;;30.60;49.60;;;;;;5085615;28;20185;-77
2022/09/07 13:25:18;;;;;;;3.07;1.70;;;31.60;48.70;;;;;;5067397;28;20207;-77
2022/09/07 13:28:01;;;;;;;2.63;1.57;;;32.90;46.80;;;;;;5086513;28;20596;-77
2022/09/07 13:30:58;;;;;;;1.57;1.47;;;34.00;45.30;;;;;;5068103;28;20199;-78
2022/09/07 13:33:27;;;;;;;3.53;1.60;;;35.00;44.80;;;;;;5039073;28;20231;-77
2022/09/07 13:35:59;;;;;;;1.93;1.43;;;35.80;43.30;;;;;;5082040;28;20179;-78
2022/09/07 13:38:26;;;;;;;1.90;1.57;;;36.40;41.80;;;;;;5087720;28;20216;-78
2022/09/07 13:40:55;;;;;;;3.10;1.67;;;36.40;40.90;;;;;;5078693;28;20179;-78
2022/09/07 13:43:23;;;;;;;2.17;1.50;;;36.40;41.40;;;;;;5060386;28;20675;-77
2022/09/07 13:45:52;;;;;;;2.20;1.50;;;36.50;40.70;;;;;;5081738;28;20185;-77
2022/09/07 13:48:27;;;;;;;2.00;1.30;;;36.60;40.80;;;;;;5085541;28;20214;-77
2022/09/07 13:51:12;;;;;;;2.90;1.63;;;37.10;40.10;;;;;;5084819;28;20189;-79
2022/09/07 13:53:58;;;;;;;2.13;1.33;;;37.40;39.10;;;;;;5083847;28;20214;-79
2022/09/07 13:56:36;;;;;;;2.93;1.40;;;36.60;39.90;;;;;;5087630;28;20605;-82
2022/09/07 13:59:26;;;;;;;1.83;1.60;;;35.50;41.80;;;;;;5066557;28;20448;-77
2022/09/07 14:01:53;;;;;;;1.73;1.40;;;34.70;42.20;;;;;;5082411;28;20196;-77
2022/09/07 14:04:28;;;;;;;1.87;1.40;;;34.60;42.20;;;;;;5085681;28;20223;-77
2022/09/07 14:07:07;;;;;;;1.87;1.40;;;34.80;41.80;;;;;;5081608;28;20177;-76
2022/09/07 14:09:33;;;;;;;1.87;1.40;;;35.30;41.70;;;;;;5082319;28;20193;-76
2022/09/07 14:11:59;;;;;;;2.27;1.60;;;35.60;41.30;;;;;;5083759;28;20212;-76
2022/09/07 14:14:31;;;;;;;1.70;1.30;;;36.00;40.40;;;;;;5081935;28;20182;-77
2022/09/07 14:17:03;;;;;;;1.63;1.20;;;35.50;40.40;;;;;;5083224;28;20181;-76
2022/09/07 14:19:41;;;;;;;3.77;1.50;;;34.60;41.50;;;;;;5080560;28;20255;-76
2022/09/07 14:22:19;;;;;;;2.47;1.50;;;33.70;42.10;;;;;;5078832;28;20258;-79
2022/09/07 14:24:53;;;;;;;1.57;1.30;;;33.10;42.70;;;;;;5068207;28;20219;-79
2022/09/07 14:27:23;;;;;;;1.73;1.50;;;32.60;43.40;;;;;;5085690;28;20458;-77
2022/09/07 14:29:50;;;;;;;3.00;1.40;;;32.10;44.00;;;;;;5082923;28;20244;-76
2022/09/07 14:32:23;;;;;;;2.90;1.50;;;31.60;44.60;;;;;;5061644;28;20207;-78
2022/09/07 14:34:49;;;;;;;1.50;1.37;;;31.30;45.00;;;;;;5089820;28;20179;-78